WMT6MM EDDS-LRCL
Flight info
| Callsign | WMT6MM |
|---|---|
| Flight time | N/A |
| Altitude | 37000 |
| Route | ABTAL4H/07 ABTAL L173 RIXED Y161 RIDAR DCT MIQ DCT ALUTU DCT BIBAG Q104 AKIMA DCT FMD DCT ABLOM DCT ERGOM DCT MEGIK DCT ATSOS |
| Aircraft | A320/M-SDE3FGHIRWY/LB1 |
Departure
| Time | N/A |
|---|---|
| Airport | Stuttgart Airport (EDDS) |
Arrival
| Time | 2026-04-27 19:39 |
|---|---|
| Airport | Avram Iancu Cluj International Airport (LRCL) |
| Time | Latitude | Longitude | Altitude | Speed | Heading |
|---|---|---|---|---|---|
| 2026-04-27 18:52 | 48.12762 | 16.51728 | 37188 ft | 492 kts | 96° |
| 2026-04-27 18:52 | 48.12244 | 16.56771 | 37188 ft | 492 kts | 96° |
| 2026-04-27 18:53 | 48.10664 | 16.71917 | 37189 ft | 492 kts | 96° |
| 2026-04-27 18:53 | 48.09599 | 16.82036 | 37191 ft | 492 kts | 96° |
| 2026-04-27 18:54 | 48.08541 | 16.92133 | 37193 ft | 491 kts | 96° |
| 2026-04-27 18:54 | 48.07474 | 17.02206 | 37189 ft | 492 kts | 96° |
| 2026-04-27 18:55 | 48.06336 | 17.12293 | 37188 ft | 492 kts | 98° |
| 2026-04-27 18:55 | 48.04867 | 17.22311 | 37186 ft | 494 kts | 101° |
| 2026-04-27 18:56 | 48.03239 | 17.32278 | 37186 ft | 494 kts | 101° |
| 2026-04-27 18:56 | 48.01651 | 17.42256 | 37189 ft | 494 kts | 101° |
| 2026-04-27 18:57 | 48.00130 | 17.52243 | 37193 ft | 493 kts | 100° |
| 2026-04-27 18:57 | 47.98616 | 17.62242 | 37199 ft | 493 kts | 100° |
| 2026-04-27 18:58 | 47.97082 | 17.72192 | 37199 ft | 493 kts | 100° |
| 2026-04-27 18:58 | 47.95521 | 17.82151 | 37199 ft | 493 kts | 101° |
| 2026-04-27 18:59 | 47.93954 | 17.92067 | 37201 ft | 493 kts | 101° |
| 2026-04-27 18:59 | 47.92380 | 18.02017 | 37199 ft | 492 kts | 101° |
| 2026-04-27 19:00 | 47.90765 | 18.11917 | 37197 ft | 492 kts | 101° |
| 2026-04-27 19:00 | 47.89087 | 18.21838 | 37202 ft | 492 kts | 102° |
| 2026-04-27 19:01 | 47.87408 | 18.31656 | 37199 ft | 492 kts | 102° |
| 2026-04-27 19:01 | 47.85714 | 18.41545 | 37198 ft | 492 kts | 102° |
| 2026-04-27 19:02 | 47.84016 | 18.51443 | 37199 ft | 492 kts | 102° |
| 2026-04-27 19:02 | 47.82326 | 18.61228 | 37199 ft | 492 kts | 102° |
| 2026-04-27 19:03 | 47.80613 | 18.71087 | 37199 ft | 492 kts | 102° |
| 2026-04-27 19:03 | 47.78894 | 18.80934 | 37197 ft | 492 kts | 102° |
| 2026-04-27 19:04 | 47.77168 | 18.90768 | 37199 ft | 492 kts | 102° |
| 2026-04-27 19:04 | 47.75433 | 19.00597 | 37206 ft | 492 kts | 102° |
| 2026-04-27 19:05 | 47.73691 | 19.10428 | 37199 ft | 491 kts | 102° |
| 2026-04-27 19:05 | 47.71951 | 19.20188 | 37157 ft | 481 kts | 102° |
| 2026-04-27 19:06 | 47.70243 | 19.29680 | 37171 ft | 474 kts | 102° |
| 2026-04-27 19:06 | 47.68541 | 19.39131 | 37173 ft | 473 kts | 102° |
| 2026-04-27 19:07 | 47.66834 | 19.48561 | 37169 ft | 474 kts | 102° |
| 2026-04-27 19:07 | 47.65124 | 19.57940 | 37164 ft | 474 kts | 102° |
| 2026-04-27 19:08 | 47.63397 | 19.67370 | 37168 ft | 475 kts | 102° |
| 2026-04-27 19:08 | 47.61662 | 19.76820 | 37171 ft | 475 kts | 102° |
| 2026-04-27 19:09 | 47.59918 | 19.86272 | 37177 ft | 476 kts | 103° |
| 2026-04-27 19:09 | 47.58158 | 19.95719 | 37175 ft | 476 kts | 103° |
| 2026-04-27 19:10 | 47.56384 | 20.05176 | 37180 ft | 477 kts | 103° |
| 2026-04-27 19:10 | 47.54610 | 20.14639 | 37176 ft | 477 kts | 103° |
| 2026-04-27 19:11 | 47.52826 | 20.24104 | 37181 ft | 477 kts | 103° |
| 2026-04-27 19:11 | 47.51026 | 20.33576 | 37187 ft | 477 kts | 103° |
| 2026-04-27 19:12 | 47.49232 | 20.42963 | 37188 ft | 478 kts | 103° |
| 2026-04-27 19:12 | 47.47418 | 20.52411 | 37192 ft | 478 kts | 103° |
| 2026-04-27 19:13 | 47.45602 | 20.61864 | 37193 ft | 478 kts | 103° |
| 2026-04-27 19:13 | 47.43780 | 20.71316 | 37194 ft | 478 kts | 103° |
| 2026-04-27 19:14 | 47.41944 | 20.80758 | 37200 ft | 479 kts | 103° |
| 2026-04-27 19:14 | 47.40090 | 20.90212 | 37201 ft | 479 kts | 103° |
| 2026-04-27 19:15 | 47.38235 | 20.99662 | 37202 ft | 480 kts | 103° |
| 2026-04-27 19:15 | 47.36369 | 21.09109 | 37188 ft | 479 kts | 103° |
| 2026-04-27 19:15 | 47.35432 | 21.13832 | 36960 ft | 479 kts | 103° |
| 2026-04-27 19:16 | 47.34499 | 21.18542 | 36521 ft | 479 kts | 103° |
| 2026-04-27 19:16 | 47.33878 | 21.21670 | 36132 ft | 479 kts | 103° |
| 2026-04-27 19:16 | 47.32620 | 21.27984 | 35333 ft | 480 kts | 102° |
| 2026-04-27 19:16 | 47.31679 | 21.32702 | 34745 ft | 480 kts | 102° |
| 2026-04-27 19:17 | 47.30733 | 21.37430 | 34170 ft | 480 kts | 102° |
| 2026-04-27 19:17 | 47.29795 | 21.42096 | 33517 ft | 480 kts | 102° |
| 2026-04-27 19:17 | 47.28832 | 21.46868 | 32865 ft | 479 kts | 102° |
| 2026-04-27 19:17 | 47.27893 | 21.51504 | 32237 ft | 478 kts | 102° |
| 2026-04-27 19:18 | 47.26941 | 21.56192 | 31617 ft | 477 kts | 102° |
| 2026-04-27 19:18 | 47.25992 | 21.60866 | 31016 ft | 476 kts | 102° |
| 2026-04-27 19:18 | 47.25041 | 21.65527 | 30433 ft | 475 kts | 102° |
| 2026-04-27 19:18 | 47.24092 | 21.70177 | 29766 ft | 473 kts | 102° |
| 2026-04-27 19:19 | 47.23149 | 21.74798 | 29091 ft | 471 kts | 103° |
| 2026-04-27 19:19 | 47.22204 | 21.79396 | 28433 ft | 468 kts | 103° |
| 2026-04-27 19:19 | 47.21256 | 21.83965 | 27783 ft | 466 kts | 103° |
| 2026-04-27 19:19 | 47.20305 | 21.88512 | 27154 ft | 463 kts | 104° |
| 2026-04-27 19:20 | 47.19356 | 21.93022 | 26541 ft | 461 kts | 104° |
| 2026-04-27 19:20 | 47.18413 | 21.97506 | 26026 ft | 456 kts | 104° |
| 2026-04-27 19:20 | 47.17483 | 22.01923 | 25637 ft | 448 kts | 104° |
| 2026-04-27 19:20 | 47.16569 | 22.06267 | 25241 ft | 442 kts | 104° |
| 2026-04-27 19:21 | 47.15663 | 22.10556 | 24860 ft | 436 kts | 104° |
| 2026-04-27 19:21 | 47.14771 | 22.14783 | 24477 ft | 431 kts | 104° |
| 2026-04-27 19:21 | 47.13887 | 22.18967 | 24102 ft | 427 kts | 104° |
| 2026-04-27 19:21 | 47.13020 | 22.23064 | 23732 ft | 423 kts | 105° |
| 2026-04-27 19:22 | 47.12177 | 22.27183 | 23290 ft | 417 kts | 100° |
| 2026-04-27 19:22 | 47.11690 | 22.31344 | 22853 ft | 411 kts | 96° |
| 2026-04-27 19:22 | 47.11246 | 22.35459 | 22424 ft | 407 kts | 96° |
| 2026-04-27 19:22 | 47.10801 | 22.39538 | 22012 ft | 403 kts | 96° |
| 2026-04-27 19:23 | 47.10360 | 22.43574 | 21592 ft | 399 kts | 96° |
| 2026-04-27 19:23 | 47.09923 | 22.47573 | 21176 ft | 394 kts | 96° |
| 2026-04-27 19:23 | 47.09492 | 22.51520 | 20769 ft | 390 kts | 96° |
| 2026-04-27 19:23 | 47.09065 | 22.55430 | 20365 ft | 386 kts | 96° |
| 2026-04-27 19:24 | 47.08639 | 22.59305 | 19979 ft | 383 kts | 96° |
| 2026-04-27 19:24 | 47.08215 | 22.63147 | 19582 ft | 380 kts | 96° |
| 2026-04-27 19:24 | 47.07793 | 22.66948 | 19196 ft | 377 kts | 97° |
| 2026-04-27 19:24 | 47.07374 | 22.70726 | 18820 ft | 373 kts | 97° |
| 2026-04-27 19:25 | 47.06955 | 22.74474 | 18434 ft | 371 kts | 97° |
| 2026-04-27 19:25 | 47.06541 | 22.78189 | 18000 ft | 368 kts | 97° |
| 2026-04-27 19:25 | 47.06129 | 22.81876 | 17572 ft | 365 kts | 97° |
| 2026-04-27 19:25 | 47.05723 | 22.85497 | 17160 ft | 363 kts | 97° |
| 2026-04-27 19:26 | 47.05313 | 22.89144 | 16743 ft | 361 kts | 97° |
| 2026-04-27 19:26 | 47.04904 | 22.92786 | 16330 ft | 359 kts | 97° |
| 2026-04-27 19:26 | 47.04496 | 22.96393 | 15921 ft | 358 kts | 97° |
| 2026-04-27 19:26 | 47.04089 | 22.99975 | 15523 ft | 355 kts | 97° |
| 2026-04-27 19:27 | 47.03820 | 23.02333 | 15262 ft | 354 kts | 97° |
| 2026-04-27 19:27 | 47.03414 | 23.05894 | 14868 ft | 353 kts | 97° |
| 2026-04-27 19:27 | 47.03010 | 23.09428 | 14479 ft | 351 kts | 97° |
| 2026-04-27 19:27 | 47.02606 | 23.12948 | 14115 ft | 349 kts | 97° |
| 2026-04-27 19:28 | 47.02078 | 23.17521 | 13636 ft | 335 kts | 97° |
| 2026-04-27 19:28 | 47.01692 | 23.20846 | 13322 ft | 327 kts | 97° |
| 2026-04-27 19:28 | 47.01315 | 23.24085 | 13011 ft | 319 kts | 97° |
| 2026-04-27 19:28 | 47.01065 | 23.26235 | 12798 ft | 314 kts | 98° |
| 2026-04-27 19:29 | 47.00705 | 23.29307 | 12491 ft | 307 kts | 97° |
| 2026-04-27 19:29 | 47.00349 | 23.32356 | 12183 ft | 300 kts | 97° |
| 2026-04-27 19:29 | 47.00001 | 23.35347 | 11872 ft | 295 kts | 97° |
| 2026-04-27 19:29 | 46.99654 | 23.38300 | 11568 ft | 291 kts | 98° |
| 2026-04-27 19:30 | 46.99315 | 23.41182 | 11269 ft | 290 kts | 98° |
| 2026-04-27 19:30 | 46.98973 | 23.44086 | 10971 ft | 290 kts | 98° |
| 2026-04-27 19:30 | 46.98629 | 23.46992 | 10679 ft | 289 kts | 98° |
| 2026-04-27 19:30 | 46.98286 | 23.49889 | 10364 ft | 289 kts | 98° |
| 2026-04-27 19:31 | 46.97942 | 23.52786 | 10045 ft | 289 kts | 98° |
| 2026-04-27 19:31 | 46.97597 | 23.55693 | 9692 ft | 289 kts | 98° |
| 2026-04-27 19:31 | 46.97255 | 23.58574 | 9335 ft | 285 kts | 98° |
| 2026-04-27 19:31 | 46.96916 | 23.61426 | 8995 ft | 282 kts | 98° |
| 2026-04-27 19:32 | 46.96582 | 23.64233 | 8637 ft | 277 kts | 98° |
| 2026-04-27 19:32 | 46.96253 | 23.67003 | 8277 ft | 277 kts | 98° |
| 2026-04-27 19:32 | 46.95920 | 23.69790 | 7922 ft | 279 kts | 99° |
| 2026-04-27 19:32 | 46.95585 | 23.72569 | 7570 ft | 280 kts | 99° |
| 2026-04-27 19:33 | 46.95244 | 23.75379 | 7219 ft | 281 kts | 99° |
| 2026-04-27 19:33 | 46.95012 | 23.77288 | 6985 ft | 282 kts | 99° |
| 2026-04-27 19:33 | 46.94559 | 23.81015 | 6523 ft | 277 kts | 99° |
| 2026-04-27 19:33 | 46.94219 | 23.83740 | 6155 ft | 268 kts | 103° |
| 2026-04-27 19:34 | 46.93530 | 23.86222 | 5785 ft | 260 kts | 122° |
| 2026-04-27 19:34 | 46.92380 | 23.88195 | 5429 ft | 251 kts | 141° |
| 2026-04-27 19:34 | 46.90927 | 23.89514 | 5072 ft | 242 kts | 159° |
| 2026-04-27 19:34 | 46.89354 | 23.90279 | 4709 ft | 235 kts | 164° |
| 2026-04-27 19:35 | 46.87792 | 23.90893 | 4292 ft | 230 kts | 175° |
| 2026-04-27 19:35 | 46.86254 | 23.90800 | 4138 ft | 212 kts | 195° |
| 2026-04-27 19:35 | 46.84910 | 23.90072 | 3990 ft | 203 kts | 212° |
| 2026-04-27 19:35 | 46.83813 | 23.88844 | 3808 ft | 197 kts | 229° |
| 2026-04-27 19:36 | 46.83023 | 23.87244 | 3576 ft | 193 kts | 246° |
| 2026-04-27 19:36 | 46.82554 | 23.85445 | 3339 ft | 183 kts | 255° |
| 2026-04-27 19:36 | 46.82178 | 23.83757 | 3100 ft | 167 kts | 255° |
| 2026-04-27 19:36 | 46.81838 | 23.82234 | 2886 ft | 151 kts | 255° |
| 2026-04-27 19:37 | 46.81520 | 23.80807 | 2683 ft | 146 kts | 256° |
| 2026-04-27 19:37 | 46.81213 | 23.79431 | 2486 ft | 144 kts | 255° |
| 2026-04-27 19:37 | 46.80904 | 23.78047 | 2297 ft | 144 kts | 255° |
| 2026-04-27 19:37 | 46.80597 | 23.76662 | 2088 ft | 144 kts | 255° |
| 2026-04-27 19:38 | 46.80288 | 23.75285 | 1865 ft | 142 kts | 255° |
| 2026-04-27 19:38 | 46.79979 | 23.73917 | 1656 ft | 141 kts | 255° |
| 2026-04-27 19:38 | 46.79673 | 23.72564 | 1466 ft | 139 kts | 255° |
| 2026-04-27 19:38 | 46.79375 | 23.71228 | 1304 ft | 138 kts | 255° |
| 2026-04-27 19:39 | 46.79086 | 23.69924 | 1115 ft | 135 kts | 254° |
| 2026-04-27 19:39 | 46.78793 | 23.68663 | 1046 ft | 120 kts | 257° |
| 2026-04-27 19:39 | 46.78580 | 23.67660 | 1043 ft | 76 kts | 251° |
| 2026-04-27 19:39 | 46.78511 | 23.67356 | 1043 ft | 10 kts | 252° |
| 2026-04-27 19:40 | 46.78499 | 23.67303 | 1043 ft | 3 kts | 252° |
| 2026-04-27 19:40 | 46.78490 | 23.67263 | 1043 ft | 6 kts | 252° |
| 2026-04-27 19:40 | 46.78473 | 23.67195 | 1043 ft | 9 kts | 237° |
| 2026-04-27 19:40 | 46.78413 | 23.67181 | 1043 ft | 11 kts | 157° |
| 2026-04-27 19:41 | 46.78354 | 23.67267 | 1043 ft | 13 kts | 123° |
| 2026-04-27 19:41 | 46.78350 | 23.67413 | 1043 ft | 16 kts | 79° |
| 2026-04-27 19:41 | 46.78379 | 23.67586 | 1043 ft | 19 kts | 71° |
| 2026-04-27 19:41 | 46.78424 | 23.67785 | 1043 ft | 22 kts | 71° |
| 2026-04-27 19:42 | 46.78475 | 23.68012 | 1043 ft | 25 kts | 72° |
| 2026-04-27 19:42 | 46.78517 | 23.68197 | 1043 ft | 19 kts | 72° |
| 2026-04-27 19:42 | 46.78561 | 23.68391 | 1043 ft | 22 kts | 71° |
| 2026-04-27 19:42 | 46.78611 | 23.68613 | 1043 ft | 24 kts | 71° |
| 2026-04-27 19:43 | 46.78664 | 23.68848 | 1043 ft | 17 kts | 72° |
| 2026-04-27 19:43 | 46.78704 | 23.69028 | 1043 ft | 20 kts | 71° |
| 2026-04-27 19:43 | 46.78737 | 23.69173 | 1043 ft | 8 kts | 72° |
| 2026-04-27 19:43 | 46.78717 | 23.69254 | 1043 ft | 11 kts | 148° |
| 2026-04-27 19:44 | 46.78639 | 23.69294 | 1043 ft | 13 kts | 162° |
| 2026-04-27 19:44 | 46.78555 | 23.69334 | 1043 ft | 10 kts | 162° |
| 2026-04-27 19:44 | 46.78495 | 23.69362 | 1043 ft | 7 kts | 162° |
| 2026-04-27 19:44 | 46.78479 | 23.69399 | 1043 ft | 5 kts | 63° |
| 2026-04-27 19:45 | 46.78482 | 23.69412 | 1043 ft | 2 kts | 73° |
| 2026-04-27 19:45 | 46.78487 | 23.69437 | 1043 ft | 2 kts | 73° |
| 2026-04-27 19:45 | 46.78491 | 23.69453 | 1043 ft | 1 kts | 71° |
| 2026-04-27 19:45 | 46.78491 | 23.69454 | 1043 ft | 0 kts | 71° |